sensor_id;sensor_type;location;lat;lon;timestamp;pressure;altitude;pressure_sealevel;temperature;humidity
62655;BME280;48717;55.556;37.816;2023-01-25T00:00:29;100931.88;;;-2.67;93.00
62655;BME280;48717;55.556;37.816;2023-01-25T00:02:57;100976.84;;;-2.51;92.52
62655;BME280;48717;55.556;37.816;2023-01-25T00:05:24;100918.44;;;-2.86;93.08
62655;BME280;48717;55.556;37.816;2023-01-25T00:07:51;100958.00;;;-2.50;93.72
62655;BME280;48717;55.556;37.816;2023-01-25T00:10:19;100964.63;;;-2.54;93.75
62655;BME280;48717;55.556;37.816;2023-01-25T00:12:46;100942.63;;;-2.60;93.46
62655;BME280;48717;55.556;37.816;2023-01-25T00:15:13;100917.53;;;-2.75;93.72
62655;BME280;48717;55.556;37.816;2023-01-25T00:17:40;100891.31;;;-2.93;93.52
62655;BME280;48717;55.556;37.816;2023-01-25T00:20:08;100896.25;;;-2.84;93.18
62655;BME280;48717;55.556;37.816;2023-01-25T00:22:36;100937.47;;;-2.60;93.49
62655;BME280;48717;55.556;37.816;2023-01-25T00:25:03;100946.88;;;-2.49;93.16
62655;BME280;48717;55.556;37.816;2023-01-25T00:27:31;100937.13;;;-2.53;93.65
62655;BME280;48717;55.556;37.816;2023-01-25T00:29:58;100930.94;;;-2.55;93.35
62655;BME280;48717;55.556;37.816;2023-01-25T00:32:46;100944.19;;;-2.51;93.74
62655;BME280;48717;55.556;37.816;2023-01-25T00:35:15;100894.88;;;-2.79;93.53
62655;BME280;48717;55.556;37.816;2023-01-25T00:37:43;100913.81;;;-2.67;93.32
62655;BME280;48717;55.556;37.816;2023-01-25T00:40:12;100938.91;;;-2.52;93.64
62655;BME280;48717;55.556;37.816;2023-01-25T00:42:40;100893.09;;;-2.80;94.15
62655;BME280;48717;55.556;37.816;2023-01-25T00:45:10;100904.75;;;-2.73;93.58
62655;BME280;48717;55.556;37.816;2023-01-25T00:47:38;100918.41;;;-2.63;93.56
62655;BME280;48717;55.556;37.816;2023-01-25T00:50:06;100932.75;;;-2.54;93.76
62655;BME280;48717;55.556;37.816;2023-01-25T00:52:34;100924.44;;;-2.62;93.32
62655;BME280;48717;55.556;37.816;2023-01-25T00:55:02;100933.16;;;-2.48;93.38
62655;BME280;48717;55.556;37.816;2023-01-25T00:57:30;100932.25;;;-2.49;93.30
62655;BME280;48717;55.556;37.816;2023-01-25T00:59:57;100921.63;;;-2.53;93.24
62655;BME280;48717;55.556;37.816;2023-01-25T01:02:24;100924.22;;;-2.53;93.29
62655;BME280;48717;55.556;37.816;2023-01-25T01:04:52;100896.84;;;-2.63;92.60
62655;BME280;48717;55.556;37.816;2023-01-25T01:07:22;100893.56;;;-2.60;93.38
62655;BME280;48717;55.556;37.816;2023-01-25T01:09:51;100906.13;;;-2.53;92.60
62655;BME280;48717;55.556;37.816;2023-01-25T01:12:18;100912.50;;;-2.48;92.62
62655;BME280;48717;55.556;37.816;2023-01-25T01:14:45;100853.44;;;-2.81;92.76
62655;BME280;48717;55.556;37.816;2023-01-25T01:17:12;100912.09;;;-2.54;92.94
62655;BME280;48717;55.556;37.816;2023-01-25T01:19:39;100883.41;;;-2.71;92.35
62655;BME280;48717;55.556;37.816;2023-01-25T01:22:07;100893.47;;;-2.62;92.73
62655;BME280;48717;55.556;37.816;2023-01-25T01:24:34;100902.75;;;-2.52;92.67
62655;BME280;48717;55.556;37.816;2023-01-25T01:27:02;100896.94;;;-2.62;92.68
62655;BME280;48717;55.556;37.816;2023-01-25T01:29:29;100870.38;;;-2.72;92.86
62655;BME280;48717;55.556;37.816;2023-01-25T01:31:56;100898.84;;;-2.59;92.42
62655;BME280;48717;55.556;37.816;2023-01-25T01:34:25;100902.44;;;-2.57;92.60
62655;BME280;48717;55.556;37.816;2023-01-25T01:36:53;100859.81;;;-2.76;92.86
62655;BME280;48717;55.556;37.816;2023-01-25T01:39:21;100891.09;;;-2.59;92.58
62655;BME280;48717;55.556;37.816;2023-01-25T01:41:48;100875.31;;;-2.64;92.11
62655;BME280;48717;55.556;37.816;2023-01-25T01:44:20;100859.75;;;-2.77;92.44
62655;BME280;48717;55.556;37.816;2023-01-25T01:47:14;100847.19;;;-2.84;92.90
62655;BME280;48717;55.556;37.816;2023-01-25T01:49:49;100853.00;;;-2.75;92.64
62655;BME280;48717;55.556;37.816;2023-01-25T01:52:21;100874.50;;;-2.63;92.89
62655;BME280;48717;55.556;37.816;2023-01-25T01:55:02;100819.47;;;-2.87;92.46
62655;BME280;48717;55.556;37.816;2023-01-25T01:57:36;100822.19;;;-2.85;93.02
62655;BME280;48717;55.556;37.816;2023-01-25T02:00:11;100819.78;;;-2.82;92.98
62655;BME280;48717;55.556;37.816;2023-01-25T02:02:41;100848.72;;;-2.74;92.83
62655;BME280;48717;55.556;37.816;2023-01-25T02:05:16;100853.22;;;-2.72;92.68
62655;BME280;48717;55.556;37.816;2023-01-25T02:08:03;100867.91;;;-2.71;92.59
62655;BME280;48717;55.556;37.816;2023-01-25T02:10:31;100863.09;;;-2.78;92.85
62655;BME280;48717;55.556;37.816;2023-01-25T02:13:00;100854.47;;;-2.79;93.23
62655;BME280;48717;55.556;37.816;2023-01-25T02:15:34;100819.59;;;-2.97;92.87
62655;BME280;48717;55.556;37.816;2023-01-25T02:18:04;100804.41;;;-3.06;93.10
62655;BME280;48717;55.556;37.816;2023-01-25T02:25:49;100811.91;;;-3.09;94.52
62655;BME280;48717;55.556;37.816;2023-01-25T02:28:28;100827.84;;;-3.03;94.35
62655;BME280;48717;55.556;37.816;2023-01-25T02:30:56;100803.41;;;-3.20;94.68
62655;BME280;48717;55.556;37.816;2023-01-25T02:33:25;100858.09;;;-2.89;94.68
62655;BME280;48717;55.556;37.816;2023-01-25T02:35:57;100862.69;;;-2.84;94.84
62655;BME280;48717;55.556;37.816;2023-01-25T02:38:26;100821.03;;;-3.15;94.92
62655;BME280;48717;55.556;37.816;2023-01-25T02:43:49;100791.56;;;-3.30;95.45
62655;BME280;48717;55.556;37.816;2023-01-25T02:46:27;100756.06;;;-3.58;95.11
62655;BME280;48717;55.556;37.816;2023-01-25T02:48:57;100818.22;;;-3.18;95.48
62655;BME280;48717;55.556;37.816;2023-01-25T02:51:29;100787.84;;;-3.34;95.48
62655;BME280;48717;55.556;37.816;2023-01-25T02:53:57;100856.31;;;-2.90;95.58
62655;BME280;48717;55.556;37.816;2023-01-25T02:56:50;100867.72;;;-2.86;95.42
62655;BME280;48717;55.556;37.816;2023-01-25T02:59:24;100802.09;;;-3.27;95.96
62655;BME280;48717;55.556;37.816;2023-01-25T03:12:29;100853.59;;;-2.91;95.96
62655;BME280;48717;55.556;37.816;2023-01-25T03:14:57;100797.16;;;-3.24;95.91
62655;BME280;48717;55.556;37.816;2023-01-25T03:17:25;100760.31;;;-3.47;96.14
62655;BME280;48717;55.556;37.816;2023-01-25T03:19:53;100795.94;;;-3.29;96.01
62655;BME280;48717;55.556;37.816;2023-01-25T03:25:30;100865.25;;;-2.84;96.08
62655;BME280;48717;55.556;37.816;2023-01-25T03:28:06;100844.16;;;-2.91;95.84
62655;BME280;48717;55.556;37.816;2023-01-25T03:30:33;100856.94;;;-2.80;96.66
62655;BME280;48717;55.556;37.816;2023-01-25T03:33:01;100787.06;;;-3.21;95.58
62655;BME280;48717;55.556;37.816;2023-01-25T03:35:29;100780.31;;;-3.19;95.75
62655;BME280;48717;55.556;37.816;2023-01-25T03:37:56;100789.84;;;-3.18;96.16
62655;BME280;48717;55.556;37.816;2023-01-25T03:40:24;100780.88;;;-3.23;95.70
62655;BME280;48717;55.556;37.816;2023-01-25T03:42:52;100837.66;;;-2.85;96.25
62655;BME280;48717;55.556;37.816;2023-01-25T03:45:19;100843.69;;;-2.85;95.76
62655;BME280;48717;55.556;37.816;2023-01-25T03:47:47;100842.59;;;-2.89;95.74
62655;BME280;48717;55.556;37.816;2023-01-25T03:50:14;100779.91;;;-3.25;95.99
62655;BME280;48717;55.556;37.816;2023-01-25T03:52:43;100845.28;;;-2.87;96.31
62655;BME280;48717;55.556;37.816;2023-01-25T03:55:45;100776.66;;;-3.34;96.51
62655;BME280;48717;55.556;37.816;2023-01-25T04:55:59;100854.72;;;-2.88;96.87
62655;BME280;48717;55.556;37.816;2023-01-25T04:58:31;100745.19;;;-3.54;96.81
62655;BME280;48717;55.556;37.816;2023-01-25T05:01:00;100818.44;;;-3.15;96.83
62655;BME280;48717;55.556;37.816;2023-01-25T05:03:32;100856.09;;;-2.93;96.89
62655;BME280;48717;55.556;37.816;2023-01-25T05:05:59;100826.72;;;-3.07;96.83
62655;BME280;48717;55.556;37.816;2023-01-25T05:11:59;100778.88;;;-3.27;96.23
62655;BME280;48717;55.556;37.816;2023-01-25T05:14:37;100763.97;;;-3.31;96.04
62655;BME280;48717;55.556;37.816;2023-01-25T05:17:06;100796.69;;;-3.18;95.83
62655;BME280;48717;55.556;37.816;2023-01-25T05:19:35;100784.25;;;-3.24;96.25
62655;BME280;48717;55.556;37.816;2023-01-25T05:28:24;100802.91;;;-3.03;95.92
62655;BME280;48717;55.556;37.816;2023-01-25T05:31:21;100792.47;;;-3.04;95.55
62655;BME280;48717;55.556;37.816;2023-01-25T05:33:49;100787.00;;;-3.09;94.96
62655;BME280;48717;55.556;37.816;2023-01-25T05:36:18;100783.34;;;-3.12;94.54
62655;BME280;48717;55.556;37.816;2023-01-25T06:00:31;100780.59;;;-3.02;93.82
62655;BME280;48717;55.556;37.816;2023-01-25T06:03:24;100863.13;;;-2.53;93.18
62655;BME280;48717;55.556;37.816;2023-01-25T06:05:59;100846.31;;;-2.59;93.30
62655;BME280;48717;55.556;37.816;2023-01-25T06:08:31;100784.91;;;-2.89;92.91
62655;BME280;48717;55.556;37.816;2023-01-25T06:11:08;100852.69;;;-2.54;92.52
62655;BME280;48717;55.556;37.816;2023-01-25T06:13:41;100724.13;;;-3.23;92.49
62655;BME280;48717;55.556;37.816;2023-01-25T06:16:09;100769.59;;;-2.99;92.02
62655;BME280;48717;55.556;37.816;2023-01-25T06:18:37;100771.84;;;-3.04;91.59
62655;BME280;48717;55.556;37.816;2023-01-25T06:21:27;100839.16;;;-2.64;91.49
62655;BME280;48717;55.556;37.816;2023-01-25T06:23:55;100841.56;;;-2.53;91.67
62655;BME280;48717;55.556;37.816;2023-01-25T06:26:22;100841.72;;;-2.64;91.76
62655;BME280;48717;55.556;37.816;2023-01-25T06:28:50;100795.81;;;-2.93;91.38
62655;BME280;48717;55.556;37.816;2023-01-25T06:31:19;100770.50;;;-3.11;90.63
62655;BME280;48717;55.556;37.816;2023-01-25T06:33:50;100861.31;;;-2.54;90.98
62655;BME280;48717;55.556;37.816;2023-01-25T06:36:20;100848.97;;;-2.58;90.66
62655;BME280;48717;55.556;37.816;2023-01-25T06:38:50;100857.47;;;-2.47;90.98
62655;BME280;48717;55.556;37.816;2023-01-25T06:41:18;100852.13;;;-2.50;90.65
62655;BME280;48717;55.556;37.816;2023-01-25T06:44:19;100657.13;;;-3.60;89.97
62655;BME280;48717;55.556;37.816;2023-01-25T06:47:03;100756.47;;;-3.03;90.32
62655;BME280;48717;55.556;37.816;2023-01-25T06:49:31;100711.28;;;-3.35;90.11
62655;BME280;48717;55.556;37.816;2023-01-25T06:51:59;100747.09;;;-3.14;89.57
62655;BME280;48717;55.556;37.816;2023-01-25T06:54:27;100806.88;;;-2.82;89.83
62655;BME280;48717;55.556;37.816;2023-01-25T06:57:10;100838.34;;;-2.63;89.70
62655;BME280;48717;55.556;37.816;2023-01-25T06:59:45;100834.69;;;-2.66;89.90
62655;BME280;48717;55.556;37.816;2023-01-25T07:05:48;100740.41;;;-3.24;89.45
62655;BME280;48717;55.556;37.816;2023-01-25T07:08:21;100745.09;;;-3.18;89.38
62655;BME280;48717;55.556;37.816;2023-01-25T07:10:56;100819.44;;;-2.75;89.31
62655;BME280;48717;55.556;37.816;2023-01-25T07:13:26;100784.97;;;-3.01;89.09
62655;BME280;48717;55.556;37.816;2023-01-25T07:15:57;100855.28;;;-2.54;89.34
62655;BME280;48717;55.556;37.816;2023-01-25T07:18:26;100688.91;;;-3.48;89.18
62655;BME280;48717;55.556;37.816;2023-01-25T07:21:08;100853.91;;;-2.49;88.70
62655;BME280;48717;55.556;37.816;2023-01-25T07:23:59;100768.69;;;-3.00;89.38
62655;BME280;48717;55.556;37.816;2023-01-25T07:26:31;100846.50;;;-2.56;89.49
62655;BME280;48717;55.556;37.816;2023-01-25T07:28:59;100845.66;;;-2.69;90.49
62655;BME280;48717;55.556;37.816;2023-01-25T07:31:29;100699.00;;;-3.51;90.40
62655;BME280;48717;55.556;37.816;2023-01-25T07:33:57;100870.56;;;-2.57;90.54
62655;BME280;48717;55.556;37.816;2023-01-25T07:36:24;100822.13;;;-2.73;90.34
62655;BME280;48717;55.556;37.816;2023-01-25T07:38:53;100771.75;;;-3.06;90.71
62655;BME280;48717;55.556;37.816;2023-01-25T07:41:24;100789.31;;;-3.00;91.09
62655;BME280;48717;55.556;37.816;2023-01-25T07:43:52;100774.00;;;-3.10;90.97
62655;BME280;48717;55.556;37.816;2023-01-25T07:46:31;100831.19;;;-2.67;91.22
62655;BME280;48717;55.556;37.816;2023-01-25T13:44:46;100397.69;;;-3.72;86.01
62655;BME280;48717;55.556;37.816;2023-01-25T13:47:21;100481.97;;;-3.18;86.12
62655;BME280;48717;55.556;37.816;2023-01-25T13:52:23;100425.31;;;-3.44;86.20
62655;BME280;48717;55.556;37.816;2023-01-25T13:54:57;100459.94;;;-3.26;86.49
62655;BME280;48717;55.556;37.816;2023-01-25T14:52:53;100418.16;;;-3.48;87.74
62655;BME280;48717;55.556;37.816;2023-01-25T14:55:20;100396.53;;;-3.63;87.39
62655;BME280;48717;55.556;37.816;2023-01-25T14:57:48;100441.66;;;-3.30;87.58
62655;BME280;48717;55.556;37.816;2023-01-25T15:00:20;100471.16;;;-3.12;87.66
62655;BME280;48717;55.556;37.816;2023-01-25T15:02:56;100478.88;;;-3.12;87.20
62655;BME280;48717;55.556;37.816;2023-01-25T15:05:29;100457.03;;;-3.31;88.11
62655;BME280;48717;55.556;37.816;2023-01-25T15:10:37;100397.00;;;-3.56;87.32
62655;BME280;48717;55.556;37.816;2023-01-25T15:15:56;100344.84;;;-3.92;87.84
62655;BME280;48717;55.556;37.816;2023-01-25T15:18:53;100408.03;;;-3.58;87.77
62655;BME280;48717;55.556;37.816;2023-01-25T15:21:24;100481.75;;;-3.21;88.09
62655;BME280;48717;55.556;37.816;2023-01-25T15:23:53;100342.16;;;-3.94;87.93
62655;BME280;48717;55.556;37.816;2023-01-25T15:26:23;100386.09;;;-3.65;88.27
62655;BME280;48717;55.556;37.816;2023-01-25T15:28:53;100463.19;;;-3.29;87.95
62655;BME280;48717;55.556;37.816;2023-01-25T15:33:57;100406.25;;;-3.59;88.39
62655;BME280;48717;55.556;37.816;2023-01-25T15:36:26;100447.63;;;-3.44;88.74
62655;BME280;48717;55.556;37.816;2023-01-25T15:38:53;100453.84;;;-3.41;89.16
62655;BME280;48717;55.556;37.816;2023-01-25T15:41:21;100436.00;;;-3.51;89.26
62655;BME280;48717;55.556;37.816;2023-01-25T15:43:48;100487.41;;;-3.27;89.46
62655;BME280;48717;55.556;37.816;2023-01-25T15:46:25;100483.13;;;-3.26;88.88
62655;BME280;48717;55.556;37.816;2023-01-25T15:48:54;100435.78;;;-3.54;88.57
62655;BME280;48717;55.556;37.816;2023-01-25T15:51:22;100464.38;;;-3.37;89.11
62655;BME280;48717;55.556;37.816;2023-01-25T15:53:49;100384.00;;;-3.84;89.19
62655;BME280;48717;55.556;37.816;2023-01-25T15:56:22;100471.16;;;-3.26;89.43
62655;BME280;48717;55.556;37.816;2023-01-25T15:58:55;100434.13;;;-3.40;89.45
62655;BME280;48717;55.556;37.816;2023-01-25T16:01:25;100439.88;;;-3.31;89.54
62655;BME280;48717;55.556;37.816;2023-01-25T16:03:54;100398.22;;;-3.50;88.95
62655;BME280;48717;55.556;37.816;2023-01-25T16:09:17;100376.38;;;-3.69;89.24
62655;BME280;48717;55.556;37.816;2023-01-25T16:11:46;100373.81;;;-3.69;89.62
62655;BME280;48717;55.556;37.816;2023-01-25T16:14:14;100346.56;;;-3.92;88.92
62655;BME280;48717;55.556;37.816;2023-01-25T16:16:46;100380.34;;;-3.74;89.43
62655;BME280;48717;55.556;37.816;2023-01-25T16:19:17;100466.97;;;-3.24;89.33
62655;BME280;48717;55.556;37.816;2023-01-25T16:21:44;100453.97;;;-3.39;89.91
62655;BME280;48717;55.556;37.816;2023-01-25T16:24:12;100406.25;;;-3.59;89.38
62655;BME280;48717;55.556;37.816;2023-01-25T16:26:44;100453.75;;;-3.29;89.92
62655;BME280;48717;55.556;37.816;2023-01-25T16:29:14;100388.78;;;-3.63;90.12
62655;BME280;48717;55.556;37.816;2023-01-25T16:31:42;100444.44;;;-3.26;90.03
62655;BME280;48717;55.556;37.816;2023-01-25T16:34:10;100322.94;;;-3.99;89.64
62655;BME280;48717;55.556;37.816;2023-01-25T16:36:40;100440.78;;;-3.30;90.29
62655;BME280;48717;55.556;37.816;2023-01-25T16:39:15;100435.63;;;-3.30;90.24
62655;BME280;48717;55.556;37.816;2023-01-25T16:41:46;100371.53;;;-3.78;90.15
62655;BME280;48717;55.556;37.816;2023-01-25T16:44:14;100438.59;;;-3.37;90.31
62655;BME280;48717;55.556;37.816;2023-01-25T16:46:42;100308.47;;;-4.10;90.71
62655;BME280;48717;55.556;37.816;2023-01-25T16:49:16;100349.13;;;-3.92;90.11
62655;BME280;48717;55.556;37.816;2023-01-25T16:51:44;100372.72;;;-3.73;90.54
62655;BME280;48717;55.556;37.816;2023-01-25T16:54:11;100416.19;;;-3.38;90.92
62655;BME280;48717;55.556;37.816;2023-01-25T16:56:42;100371.34;;;-3.68;90.88
62655;BME280;48717;55.556;37.816;2023-01-25T16:59:10;100424.63;;;-3.41;91.14
62655;BME280;48717;55.556;37.816;2023-01-25T17:01:38;100371.94;;;-3.58;90.83
62655;BME280;48717;55.556;37.816;2023-01-25T17:04:08;100404.56;;;-3.45;91.34
62655;BME280;48717;55.556;37.816;2023-01-25T17:06:38;100393.56;;;-3.56;91.02
62655;BME280;48717;55.556;37.816;2023-01-25T17:09:07;100391.16;;;-3.53;90.83
62655;BME280;48717;55.556;37.816;2023-01-25T17:11:47;100372.13;;;-3.55;90.46
62655;BME280;48717;55.556;37.816;2023-01-25T17:14:16;100399.09;;;-3.36;90.42
62655;BME280;48717;55.556;37.816;2023-01-25T17:16:45;100347.75;;;-3.60;91.35
62655;BME280;48717;55.556;37.816;2023-01-25T17:19:15;100353.88;;;-3.72;91.13
62655;BME280;48717;55.556;37.816;2023-01-25T17:21:43;100398.50;;;-3.46;90.93
62655;BME280;48717;55.556;37.816;2023-01-25T17:24:13;100398.91;;;-3.39;91.15
62655;BME280;48717;55.556;37.816;2023-01-25T17:26:40;100385.34;;;-3.50;90.62
62655;BME280;48717;55.556;37.816;2023-01-25T17:29:09;100371.53;;;-3.64;91.10
62655;BME280;48717;55.556;37.816;2023-01-25T17:31:39;100358.56;;;-3.66;90.91
62655;BME280;48717;55.556;37.816;2023-01-25T17:34:09;100415.00;;;-3.44;90.23
62655;BME280;48717;55.556;37.816;2023-01-25T17:36:36;100414.00;;;-3.46;89.76
62655;BME280;48717;55.556;37.816;2023-01-25T17:39:05;100394.16;;;-3.60;90.37
62655;BME280;48717;55.556;37.816;2023-01-25T17:41:33;100388.59;;;-3.53;90.63
62655;BME280;48717;55.556;37.816;2023-01-25T17:44:00;100343.41;;;-3.75;90.40
62655;BME280;48717;55.556;37.816;2023-01-25T17:46:30;100363.41;;;-3.57;89.98
62655;BME280;48717;55.556;37.816;2023-01-25T17:49:00;100383.16;;;-3.44;90.78
62655;BME280;48717;55.556;37.816;2023-01-25T17:51:30;100393.34;;;-3.46;90.34
62655;BME280;48717;55.556;37.816;2023-01-25T17:53:59;100345.56;;;-3.68;90.33
62655;BME280;48717;55.556;37.816;2023-01-25T17:56:27;100281.13;;;-4.08;90.09
62655;BME280;48717;55.556;37.816;2023-01-25T17:58:55;100333.06;;;-3.88;90.27
62655;BME280;48717;55.556;37.816;2023-01-25T18:01:27;100389.59;;;-3.51;89.86
62655;BME280;48717;55.556;37.816;2023-01-25T18:03:55;100382.56;;;-3.54;89.49
62655;BME280;48717;55.556;37.816;2023-01-25T18:06:25;100379.06;;;-3.54;90.18
62655;BME280;48717;55.556;37.816;2023-01-25T18:08:55;100391.69;;;-3.59;90.35
62655;BME280;48717;55.556;37.816;2023-01-25T18:11:25;100337.63;;;-3.84;89.18
62655;BME280;48717;55.556;37.816;2023-01-25T18:13:54;100365.47;;;-3.78;90.07
62655;BME280;48717;55.556;37.816;2023-01-25T18:16:24;100366.97;;;-3.69;89.78
62655;BME280;48717;55.556;37.816;2023-01-25T18:18:55;100379.66;;;-3.72;90.36
62655;BME280;48717;55.556;37.816;2023-01-25T18:21:25;100335.81;;;-3.99;89.96
62655;BME280;48717;55.556;37.816;2023-01-25T18:23:58;100383.25;;;-3.70;89.08
62655;BME280;48717;55.556;37.816;2023-01-25T18:26:29;100376.09;;;-3.74;89.88
62655;BME280;48717;55.556;37.816;2023-01-25T18:29:00;100373.69;;;-3.84;89.78
62655;BME280;48717;55.556;37.816;2023-01-25T18:31:29;100370.63;;;-3.78;90.29
62655;BME280;48717;55.556;37.816;2023-01-25T18:33:56;100377.50;;;-3.79;89.23
62655;BME280;48717;55.556;37.816;2023-01-25T18:36:24;100358.63;;;-3.91;90.67
62655;BME280;48717;55.556;37.816;2023-01-25T18:38:53;100374.91;;;-3.79;90.47
62655;BME280;48717;55.556;37.816;2023-01-25T18:41:20;100365.38;;;-3.80;90.02
62655;BME280;48717;55.556;37.816;2023-01-25T18:43:48;100342.97;;;-3.95;90.02
62655;BME280;48717;55.556;37.816;2023-01-25T18:46:16;100370.03;;;-3.88;90.73
62655;BME280;48717;55.556;37.816;2023-01-25T18:48:46;100311.13;;;-4.22;90.29
62655;BME280;48717;55.556;37.816;2023-01-25T18:51:14;100328.66;;;-4.16;90.52
62655;BME280;48717;55.556;37.816;2023-01-25T18:53:44;100358.91;;;-4.00;90.02
62655;BME280;48717;55.556;37.816;2023-01-25T18:56:20;100322.44;;;-4.20;90.00
62655;BME280;48717;55.556;37.816;2023-01-25T18:58:47;100349.28;;;-4.03;90.01
62655;BME280;48717;55.556;37.816;2023-01-25T19:01:20;100337.19;;;-4.17;90.43
62655;BME280;48717;55.556;37.816;2023-01-25T19:03:48;100332.44;;;-4.11;90.81
62655;BME280;48717;55.556;37.816;2023-01-25T19:06:16;100315.19;;;-4.26;91.11
62655;BME280;48717;55.556;37.816;2023-01-25T19:08:43;100335.59;;;-4.15;90.61
62655;BME280;48717;55.556;37.816;2023-01-25T19:11:17;100341.75;;;-4.13;90.84
62655;BME280;48717;55.556;37.816;2023-01-25T19:13:48;100332.03;;;-4.17;90.92
62655;BME280;48717;55.556;37.816;2023-01-25T19:18:48;100307.25;;;-4.29;90.84
62655;BME280;48717;55.556;37.816;2023-01-25T19:21:26;100319.97;;;-4.18;90.04
62655;BME280;48717;55.556;37.816;2023-01-25T19:23:54;100317.75;;;-4.26;91.18
62655;BME280;48717;55.556;37.816;2023-01-25T19:26:23;100320.66;;;-4.21;90.96
62655;BME280;48717;55.556;37.816;2023-01-25T19:28:52;100320.66;;;-4.21;90.05
62655;BME280;48717;55.556;37.816;2023-01-25T19:31:21;100307.66;;;-4.23;90.66
62655;BME280;48717;55.556;37.816;2023-01-25T19:34:00;100301.81;;;-4.20;89.87
62655;BME280;48717;55.556;37.816;2023-01-25T19:36:29;100281.31;;;-4.32;90.36
62655;BME280;48717;55.556;37.816;2023-01-25T19:38:56;100294.00;;;-4.22;90.67
62655;BME280;48717;55.556;37.816;2023-01-25T19:41:26;100267.44;;;-4.34;90.31
62655;BME280;48717;55.556;37.816;2023-01-25T19:44:01;100297.38;;;-4.23;91.52
62655;BME280;48717;55.556;37.816;2023-01-25T19:46:30;100262.69;;;-4.41;90.39
62655;BME280;48717;55.556;37.816;2023-01-25T19:49:00;100278.91;;;-4.29;91.49
62655;BME280;48717;55.556;37.816;2023-01-25T19:51:29;100230.38;;;-4.50;91.55
62655;BME280;48717;55.556;37.816;2023-01-25T19:53:58;100302.03;;;-4.17;92.06
62655;BME280;48717;55.556;37.816;2023-01-25T19:56:27;100239.09;;;-4.48;91.53
62655;BME280;48717;55.556;37.816;2023-01-25T19:58:55;100220.47;;;-4.57;92.11
62655;BME280;48717;55.556;37.816;2023-01-25T20:01:24;100276.44;;;-4.27;92.21
62655;BME280;48717;55.556;37.816;2023-01-25T20:03:55;100301.53;;;-4.11;91.96
62655;BME280;48717;55.556;37.816;2023-01-25T20:06:27;100293.78;;;-4.11;91.76
62655;BME280;48717;55.556;37.816;2023-01-25T20:08:55;100286.88;;;-4.12;92.52
62655;BME280;48717;55.556;37.816;2023-01-25T20:11:27;100276.34;;;-4.15;92.17
62655;BME280;48717;55.556;37.816;2023-01-25T20:13:57;100296.78;;;-4.05;93.36
62655;BME280;48717;55.556;37.816;2023-01-25T20:16:25;100284.09;;;-4.15;92.76
62655;BME280;48717;55.556;37.816;2023-01-25T20:18:55;100255.94;;;-4.26;92.60
62655;BME280;48717;55.556;37.816;2023-01-25T20:21:23;100276.38;;;-4.02;92.62
62655;BME280;48717;55.556;37.816;2023-01-25T20:23:53;100256.75;;;-4.13;93.63
62655;BME280;48717;55.556;37.816;2023-01-25T20:26:29;100282.41;;;-4.01;92.31
62655;BME280;48717;55.556;37.816;2023-01-25T20:28:58;100281.72;;;-3.99;93.58
62655;BME280;48717;55.556;37.816;2023-01-25T20:31:34;100225.25;;;-4.23;93.39
62655;BME280;48717;55.556;37.816;2023-01-25T20:34:13;100246.84;;;-4.07;92.24
62655;BME280;48717;55.556;37.816;2023-01-25T20:36:41;100268.03;;;-3.98;92.46
62655;BME280;48717;55.556;37.816;2023-01-25T20:39:11;100254.19;;;-4.00;94.03
62655;BME280;48717;55.556;37.816;2023-01-25T20:41:39;100275.00;;;-3.97;93.82
62655;BME280;48717;55.556;37.816;2023-01-25T20:44:06;100249.31;;;-4.09;92.90
62655;BME280;48717;55.556;37.816;2023-01-25T20:46:35;100273.41;;;-3.95;94.23
62655;BME280;48717;55.556;37.816;2023-01-25T20:49:06;100255.00;;;-4.01;92.98
62655;BME280;48717;55.556;37.816;2023-01-25T20:51:34;100253.81;;;-3.92;94.02
62655;BME280;48717;55.556;37.816;2023-01-25T20:54:01;100228.13;;;-4.18;93.81
62655;BME280;48717;55.556;37.816;2023-01-25T20:56:28;100237.66;;;-4.03;92.92
62655;BME280;48717;55.556;37.816;2023-01-25T20:58:57;100247.63;;;-3.95;93.68
62655;BME280;48717;55.556;37.816;2023-01-25T21:01:27;100258.16;;;-3.91;94.48
62655;BME280;48717;55.556;37.816;2023-01-25T21:03:56;100257.16;;;-3.94;94.52
62655;BME280;48717;55.556;37.816;2023-01-25T21:06:25;100251.22;;;-3.92;94.38
62655;BME280;48717;55.556;37.816;2023-01-25T21:08:53;100203.84;;;-4.22;93.58
62655;BME280;48717;55.556;37.816;2023-01-25T21:11:21;100230.41;;;-3.96;93.95
62655;BME280;48717;55.556;37.816;2023-01-25T21:13:52;100226.06;;;-3.97;94.53
62655;BME280;48717;55.556;37.816;2023-01-25T21:16:22;100154.34;;;-4.31;93.71
62655;BME280;48717;55.556;37.816;2023-01-25T21:18:52;100206.53;;;-4.07;94.93
62655;BME280;48717;55.556;37.816;2023-01-25T21:21:29;100207.41;;;-4.06;95.28
62655;BME280;48717;55.556;37.816;2023-01-25T21:23:58;100219.91;;;-3.99;95.55
62655;BME280;48717;55.556;37.816;2023-01-25T21:26:28;100144.75;;;-4.47;95.03
62655;BME280;48717;55.556;37.816;2023-01-25T21:28:57;100220.81;;;-3.98;95.41
62655;BME280;48717;55.556;37.816;2023-01-25T21:31:26;100216.72;;;-3.95;95.71
62655;BME280;48717;55.556;37.816;2023-01-25T21:33:54;100218.22;;;-3.98;94.63
62655;BME280;48717;55.556;37.816;2023-01-25T21:36:21;100174.53;;;-4.24;94.28
62655;BME280;48717;55.556;37.816;2023-01-25T21:38:49;100219.91;;;-3.99;94.84
62655;BME280;48717;55.556;37.816;2023-01-25T21:41:22;100218.13;;;-4.00;95.73
62655;BME280;48717;55.556;37.816;2023-01-25T21:43:51;100212.16;;;-3.99;94.37
62655;BME280;48717;55.556;37.816;2023-01-25T21:46:38;100217.53;;;-3.96;94.12
62655;BME280;48717;55.556;37.816;2023-01-25T21:49:10;100211.56;;;-3.95;94.72
62655;BME280;48717;55.556;37.816;2023-01-25T21:51:56;100209.00;;;-3.95;95.53
62655;BME280;48717;55.556;37.816;2023-01-25T21:54:28;100210.59;;;-3.97;95.39
62655;BME280;48717;55.556;37.816;2023-01-25T21:56:57;100182.34;;;-4.09;94.52
62655;BME280;48717;55.556;37.816;2023-01-25T21:59:24;100219.19;;;-3.96;95.64